Time;durP1;ratioP1;P1;durP2;ratioP2;P2;SDS_P1;SDS_P2;PMS_P1;PMS_P2;Temp;Humidity;BMP_temperature;BMP_pressure;BME280_temperature;BME280_humidity;BME280_pressure;Samples;Min_cycle;Max_cycle;Signal;HPM_P1;HPM_P2
2022/12/14 00:01:52;;;;;;;32.53;13.75;;;;;;;-2.23;100.00;100468.22;5053230;28;20072;-39
2022/12/14 00:04:17;;;;;;;33.88;14.07;;;;;;;-2.31;100.00;100457.38;5064621;28;20060;-40
2022/12/14 00:06:42;;;;;;;29.73;13.30;;;;;;;-2.38;100.00;100450.84;5058992;28;20079;-39
2022/12/14 00:09:08;;;;;;;30.60;13.63;;;;;;;-2.43;100.00;100454.63;5061179;28;20017;-39
2022/12/14 00:11:33;;;;;;;31.42;13.30;;;;;;;-2.35;100.00;100450.63;5065435;28;20523;-40
2022/12/14 00:14:00;;;;;;;35.47;13.60;;;;;;;-2.33;100.00;100449.56;5065750;28;20021;-37
2022/12/14 00:16:29;;;;;;;30.80;13.45;;;;;;;-2.28;100.00;100441.34;5072753;28;20040;-38
2022/12/14 00:18:57;;;;;;;27.25;12.18;;;;;;;-2.15;100.00;100438.66;5065234;28;20376;-41
2022/12/14 00:21:23;;;;;;;33.67;14.00;;;;;;;-2.12;100.00;100435.81;5069580;28;20129;-41
2022/12/14 00:23:49;;;;;;;32.22;13.15;;;;;;;-2.20;100.00;100428.44;5057783;28;20388;-40
2022/12/14 00:26:17;;;;;;;33.03;14.02;;;;;;;-2.20;100.00;100417.91;5072626;28;20493;-40
2022/12/14 00:28:43;;;;;;;27.70;11.57;;;;;;;-2.29;100.00;100413.28;5072538;28;20044;-39
2022/12/14 00:31:09;;;;;;;37.13;15.00;;;;;;;-2.23;100.00;100418.13;5067394;28;20055;-40
2022/12/14 00:33:35;;;;;;;29.88;13.48;;;;;;;-2.15;100.00;100418.41;5053865;28;20496;-39
2022/12/14 00:36:01;;;;;;;26.48;12.15;;;;;;;-2.16;100.00;100411.44;5063566;28;20036;-39
2022/12/14 00:38:27;;;;;;;29.40;12.55;;;;;;;-2.19;100.00;100393.22;5051706;28;20381;-39
2022/12/14 00:40:53;;;;;;;26.23;12.48;;;;;;;-2.15;100.00;100389.41;5051973;28;20040;-40
2022/12/14 00:43:18;;;;;;;32.33;11.77;;;;;;;-2.15;100.00;100385.94;5052058;28;20036;-40
2022/12/14 00:45:44;;;;;;;29.05;12.45;;;;;;;-2.17;100.00;100393.94;5065124;28;20032;-39
2022/12/14 00:48:10;;;;;;;29.45;12.00;;;;;;;-2.21;100.00;100390.69;5067839;28;20040;-41
2022/12/14 00:50:36;;;;;;;25.20;11.60;;;;;;;-2.25;100.00;100383.94;5070106;28;20396;-39
2022/12/14 00:53:01;;;;;;;27.38;12.27;;;;;;;-2.15;100.00;100394.69;5053032;28;20036;-39
2022/12/14 00:55:26;;;;;;;34.95;12.35;;;;;;;-2.13;100.00;100384.00;5051724;28;20547;-39
2022/12/14 00:57:52;;;;;;;37.30;12.85;;;;;;;-2.10;100.00;100382.00;5052107;28;20126;-39
2022/12/14 01:00:17;;;;;;;28.42;12.57;;;;;;;-2.12;100.00;100372.53;5052174;28;20528;-40
2022/12/14 01:02:43;;;;;;;27.10;12.18;;;;;;;-2.16;100.00;100374.53;5067909;28;20032;-39
2022/12/14 01:05:08;;;;;;;29.10;12.30;;;;;;;-2.16;100.00;100373.69;5055150;28;20376;-38
2022/12/14 01:07:34;;;;;;;27.67;12.15;;;;;;;-2.12;100.00;100373.34;5072452;28;20024;-40
2022/12/14 01:09:59;;;;;;;28.75;12.63;;;;;;;-2.09;100.00;100378.41;5071567;28;20059;-40
2022/12/14 01:12:24;;;;;;;32.67;11.70;;;;;;;-2.10;100.00;100368.00;5057462;28;20101;-37
2022/12/14 01:14:50;;;;;;;31.50;13.35;;;;;;;-2.13;100.00;100370.81;5062567;28;20025;-40
2022/12/14 01:17:15;;;;;;;29.20;11.73;;;;;;;-2.16;100.00;100361.34;5070028;28;20021;-38
2022/12/14 01:19:40;;;;;;;26.40;11.82;;;;;;;-2.16;100.00;100361.34;5061749;28;20032;-39
2022/12/14 01:22:06;;;;;;;27.50;12.48;;;;;;;-2.18;100.00;100362.44;5055729;28;20032;-40
2022/12/14 01:24:31;;;;;;;29.70;12.48;;;;;;;-2.19;100.00;100358.09;5068519;28;20047;-40
2022/12/14 01:26:56;;;;;;;24.95;11.35;;;;;;;-2.23;100.00;100363.59;5070473;28;20160;-38
2022/12/14 01:29:22;;;;;;;27.40;12.85;;;;;;;-2.24;100.00;100363.69;5069105;28;20028;-37
2022/12/14 01:31:48;;;;;;;31.75;13.27;;;;;;;-2.25;100.00;100372.56;5054443;28;20047;-38
2022/12/14 01:34:13;;;;;;;28.35;11.57;;;;;;;-2.27;100.00;100369.19;5059266;28;20063;-40
2022/12/14 01:36:38;;;;;;;31.13;12.73;;;;;;;-2.28;100.00;100373.63;5057103;28;20060;-38
2022/12/14 01:39:08;;;;;;;26.67;12.25;;;;;;;-2.34;100.00;100374.09;5050698;28;20388;-37
2022/12/14 01:41:58;;;;;;;28.70;11.52;;;;;;;-2.32;100.00;100372.16;5050479;28;20112;-40
2022/12/14 01:44:23;;;;;;;26.80;11.90;;;;;;;-2.34;100.00;100374.09;5049915;28;20044;-39
2022/12/14 01:46:54;;;;;;;27.38;12.23;;;;;;;-2.36;100.00;100380.41;5052281;28;20074;-40
2022/12/14 01:49:21;;;;;;;31.92;13.82;;;;;;;-2.37;100.00;100363.78;5052330;28;20448;-37
2022/12/14 01:51:56;;;;;;;31.92;13.02;;;;;;;-2.39;100.00;100364.84;5058878;28;20475;-39
2022/12/14 01:54:22;;;;;;;29.30;12.20;;;;;;;-2.40;100.00;100369.25;5061669;28;20032;-40
2022/12/14 01:56:48;;;;;;;32.08;13.23;;;;;;;-2.44;100.00;100368.63;5032284;28;20044;-38
2022/12/14 01:59:18;;;;;;;24.77;12.05;;;;;;;-2.48;100.00;100363.69;5050644;28;20025;-40
2022/12/14 02:01:43;;;;;;;30.08;12.82;;;;;;;-2.52;100.00;100363.06;5040197;28;20039;-40
2022/12/14 02:04:10;;;;;;;29.58;12.20;;;;;;;-2.53;100.00;100361.38;5069242;28;20032;-38
2022/12/14 02:06:38;;;;;;;32.78;12.85;;;;;;;-2.62;100.00;100363.84;5068192;28;20020;-40
2022/12/14 02:09:07;;;;;;;27.85;12.23;;;;;;;-2.66;100.00;100357.94;5070427;28;20036;-40
2022/12/14 02:11:40;;;;;;;29.75;12.52;;;;;;;-2.68;100.00;100359.84;5060865;28;20043;-39
2022/12/14 02:14:05;;;;;;;28.33;12.38;;;;;;;-2.66;100.00;100357.94;5053554;28;20435;-38
2022/12/14 02:16:31;;;;;;;24.77;11.27;;;;;;;-2.76;100.00;100360.38;5050183;28;20029;-39
2022/12/14 02:18:56;;;;;;;30.85;12.85;;;;;;;-2.75;100.00;100353.31;5059705;28;20036;-39
2022/12/14 02:21:43;;;;;;;27.58;12.32;;;;;;;-2.73;100.00;100351.44;5050910;28;20448;-40
2022/12/14 02:24:11;;;;;;;31.73;12.87;;;;;;;-2.77;100.00;100347.31;5051093;28;20033;-40
2022/12/14 02:27:01;;;;;;;29.17;12.13;;;;;;;-2.76;100.00;100347.22;5050042;28;20100;-39
2022/12/14 02:29:35;;;;;;;28.92;12.77;;;;;;;-2.84;100.00;100353.97;5064422;28;20032;-38
2022/12/14 02:32:00;;;;;;;30.75;12.30;;;;;;;-2.94;100.00;100357.25;5058941;28;20404;-37
2022/12/14 02:34:46;;;;;;;26.88;12.60;;;;;;;-3.06;100.00;100352.84;5050052;28;20028;-40
2022/12/14 02:37:27;;;;;;;28.48;11.70;;;;;;;-3.10;100.00;100349.59;5049945;28;20033;-38
2022/12/14 02:40:23;;;;;;;34.75;11.90;;;;;;;-3.12;100.00;100350.63;5048576;28;20025;-37
2022/12/14 02:43:02;;;;;;;29.85;12.32;;;;;;;-3.22;100.00;100354.84;5048689;28;20037;-40
2022/12/14 02:45:35;;;;;;;26.30;12.30;;;;;;;-3.23;100.00;100347.91;5049873;28;20029;-41
2022/12/14 02:48:06;;;;;;;28.08;12.38;;;;;;;-3.24;100.00;100338.31;5048012;28;20174;-37
2022/12/14 02:50:42;;;;;;;27.20;12.35;;;;;;;-3.28;100.00;100340.34;5048658;28;20388;-39
2022/12/14 02:53:36;;;;;;;30.30;11.90;;;;;;;-3.23;100.00;100346.13;5068131;28;20040;-40
2022/12/14 02:56:06;;;;;;;25.20;11.15;;;;;;;-3.17;100.00;100334.31;5066244;28;20045;-39
2022/12/14 02:58:38;;;;;;;25.65;11.50;;;;;;;-3.11;100.00;100337.38;5067636;28;20031;-39
2022/12/14 03:01:07;;;;;;;24.20;11.35;;;;;;;-3.16;100.00;100343.88;5068176;28;20060;-40
2022/12/14 03:03:32;;;;;;;39.20;12.73;;;;;;;-3.22;100.00;100344.31;5060891;28;20033;-40
2022/12/14 03:06:01;;;;;;;29.80;12.02;;;;;;;-3.28;100.00;100339.50;5050816;28;20074;-41
2022/12/14 03:08:27;;;;;;;;;;;;;;;-3.31;100.00;100336.13;5062017;28;20039;-39
2022/12/14 03:10:57;;;;;;;28.52;12.02;;;;;;;-3.32;100.00;100334.44;5050928;28;19908;-39
2022/12/14 03:13:56;;;;;;;28.45;12.40;;;;;;;-3.33;100.00;100330.09;5048649;28;20070;-39
2022/12/14 03:16:27;;;;;;;29.58;12.80;;;;;;;-3.34;100.00;100322.34;5052172;28;20487;-40
2022/12/14 03:19:10;;;;;;;26.98;11.80;;;;;;;-3.22;100.00;100323.28;5061914;28;20063;-38
2022/12/14 03:21:39;;;;;;;31.35;12.95;;;;;;;-3.14;100.00;100313.88;5051929;28;20021;-39
2022/12/14 03:24:08;;;;;;;25.83;11.73;;;;;;;-3.09;100.00;100310.94;5052634;28;20448;-40
2022/12/14 03:26:39;;;;;;;27.35;11.68;;;;;;;-3.03;100.00;100307.84;5051824;28;20104;-40
2022/12/14 03:29:08;;;;;;;28.73;12.18;;;;;;;-3.04;100.00;100298.28;5054136;28;20028;-40
2022/12/14 03:31:40;;;;;;;29.17;11.82;;;;;;;-3.00;100.00;100302.41;5055347;28;20028;-40
2022/12/14 03:34:12;;;;;;;29.98;12.13;;;;;;;-3.03;100.00;100292.06;5053958;28;20195;-38
2022/12/14 03:36:48;;;;;;;28.45;12.25;;;;;;;-3.06;100.00;100289.66;5067032;28;20456;-38
2022/12/14 03:39:24;;;;;;;27.50;11.57;;;;;;;-3.09;100.00;100295.13;5071245;28;20052;-40
2022/12/14 03:41:58;;;;;;;26.17;11.55;;;;;;;-3.19;100.00;100278.31;5057588;28;20020;-40
2022/12/14 03:44:46;;;;;;;26.83;11.20;;;;;;;-3.18;100.00;100277.38;5071936;28;20035;-40
2022/12/14 03:47:18;;;;;;;32.00;12.68;;;;;;;-3.18;100.00;100277.38;5072659;28;20026;-38
2022/12/14 03:50:03;;;;;;;23.63;11.23;;;;;;;-3.19;100.00;100276.50;5064951;28;20060;-39
2022/12/14 03:52:33;;;;;;;26.33;12.13;;;;;;;-3.23;100.00;100274.22;5061288;28;20033;-40
2022/12/14 03:55:05;;;;;;;27.02;11.30;;;;;;;-3.29;100.00;100274.63;5071441;28;20099;-39
2022/12/14 03:57:39;;;;;;;27.70;12.65;;;;;;;-3.32;100.00;100266.03;5071364;28;20497;-39
2022/12/14 04:00:13;;;;;;;26.70;11.50;;;;;;;-3.43;100.00;100260.66;5054303;28;20025;-40
2022/12/14 04:02:48;;;;;;;28.70;11.65;;;;;;;-3.39;100.00;100266.56;5050299;28;20033;-40
2022/12/14 04:05:24;;;;;;;27.77;12.50;;;;;;;-3.39;100.00;100264.75;5069775;28;20114;-40
2022/12/14 04:08:08;;;;;;;31.23;11.70;;;;;;;-3.36;100.00;100264.56;5071635;28;20082;-38
2022/12/14 04:19:10;;;;;;;31.75;12.40;;;;;;;-3.50;100.00;100255.91;5053672;28;20518;-40
2022/12/14 04:21:38;;;;;;;27.88;13.00;;;;;;;-3.51;100.00;100249.81;5054184;28;20078;-40
2022/12/14 04:27:15;;;;;;;33.05;11.85;;;;;;;-3.57;100.00;100250.25;5070209;28;20110;-40
2022/12/14 04:29:57;;;;;;;30.80;11.85;;;;;;;-3.58;100.00;100256.44;5069401;28;20036;-39
2022/12/14 04:32:32;;;;;;;33.83;13.45;;;;;;;-3.60;100.00;100248.69;5060806;28;20542;-37
2022/12/14 04:35:09;;;;;;;31.77;12.80;;;;;;;-3.62;100.00;100250.56;5052069;28;20056;-40
2022/12/14 04:37:37;;;;;;;27.13;12.50;;;;;;;-3.63;100.00;100245.44;5051562;28;20029;-40
2022/12/14 04:40:14;;;;;;;35.58;14.15;;;;;;;-3.62;100.00;100244.47;5050913;28;20031;-37
2022/12/14 04:42:44;;;;;;;28.95;12.73;;;;;;;-3.61;100.00;100241.72;5051869;28;20029;-40
2022/12/14 04:45:23;;;;;;;35.35;13.90;;;;;;;-3.70;100.00;100241.53;5050291;28;20393;-37
2022/12/14 04:48:10;;;;;;;28.73;13.23;;;;;;;-3.64;100.00;100249.00;5051671;28;20027;-38
2022/12/14 04:50:42;;;;;;;35.03;13.07;;;;;;;-3.63;100.00;100245.44;5070526;28;20032;-39
2022/12/14 04:53:15;;;;;;;29.35;11.98;;;;;;;-3.64;100.00;100238.47;5068330;28;20028;-39
2022/12/14 04:55:47;;;;;;;26.73;12.82;;;;;;;-3.69;100.00;100240.56;5063284;28;20456;-38
2022/12/14 04:58:24;;;;;;;29.73;13.32;;;;;;;-3.69;100.00;100230.06;5056321;28;20029;-40
2022/12/14 05:01:06;;;;;;;36.25;14.18;;;;;;;-3.69;100.00;100224.78;5067231;28;20535;-38
2022/12/14 05:03:33;;;;;;;33.33;14.07;;;;;;;-3.75;100.00;100232.16;5071054;28;20491;-37
2022/12/14 05:06:06;;;;;;;33.85;13.00;;;;;;;-3.81;100.00;100227.34;5069970;28;20452;-40
2022/12/14 05:09:09;;;;;;;24.45;11.65;;;;;;;-3.83;100.00;100229.22;5069926;28;20418;-40
2022/12/14 05:11:43;;;;;;;28.58;11.90;;;;;;;-3.83;100.00;100223.97;5058728;28;20031;-37
2022/12/14 05:14:15;;;;;;;28.23;12.10;;;;;;;-3.85;100.00;100231.09;5049888;28;20482;-38
2022/12/14 05:16:40;;;;;;;39.97;14.20;;;;;;;-3.91;100.00;100228.91;5049528;28;20466;-38
2022/12/14 05:19:07;;;;;;;28.30;12.18;;;;;;;-3.88;100.00;100235.75;5067016;28;20036;-39
2022/12/14 05:21:47;;;;;;;29.88;12.23;;;;;;;-3.94;100.00;100225.66;5070530;28;20086;-40
2022/12/14 05:24:13;;;;;;;31.30;13.07;;;;;;;-3.91;100.00;100225.44;5066839;28;20091;-40
2022/12/14 05:26:38;;;;;;;27.05;12.25;;;;;;;-3.92;100.00;100223.75;5069738;28;20063;-40
2022/12/14 05:29:04;;;;;;;27.45;11.70;;;;;;;-3.94;100.00;100225.66;5069891;28;20021;-38
2022/12/14 05:31:29;;;;;;;28.70;11.95;;;;;;;-3.94;100.00;100226.50;5067666;28;20043;-40
2022/12/14 05:33:55;;;;;;;30.48;12.48;;;;;;;-3.91;100.00;100225.44;5051129;28;20363;-37
2022/12/14 05:36:20;;;;;;;27.05;12.18;;;;;;;-3.92;100.00;100226.38;5049439;28;20029;-38
2022/12/14 05:38:46;;;;;;;28.77;12.20;;;;;;;-3.94;100.00;100217.78;5056472;28;20043;-40
2022/12/14 05:41:11;;;;;;;23.83;11.40;;;;;;;-3.94;100.00;100221.22;5069368;28;20028;-40
2022/12/14 05:43:36;;;;;;;30.35;11.98;;;;;;;-3.94;100.00;100217.78;5050693;28;20036;-40
2022/12/14 05:46:03;;;;;;;25.63;11.60;;;;;;;-3.95;100.00;100216.06;5051394;28;20237;-40
2022/12/14 05:48:29;;;;;;;30.25;11.70;;;;;;;-3.99;100.00;100213.66;5051075;28;20057;-40
2022/12/14 05:50:54;;;;;;;32.97;12.70;;;;;;;-4.02;100.00;100213.88;5052359;28;20048;-37
2022/12/14 05:53:20;;;;;;;26.00;11.85;;;;;;;-4.08;100.00;100208.16;5057108;28;20052;-39
2022/12/14 05:55:46;;;;;;;29.95;11.98;;;;;;;-4.18;100.00;100210.59;5057864;28;20791;-39
2022/12/14 05:58:12;;;;;;;31.02;13.18;;;;;;;-4.20;100.00;100205.44;5053949;28;20040;-40
2022/12/14 06:00:37;;;;;;;31.52;12.85;;;;;;;-4.17;100.00;100211.44;5054209;28;20037;-38
2022/12/14 06:03:03;;;;;;;29.15;13.25;;;;;;;-4.28;100.00;100213.00;5057758;28;20093;-37
2022/12/14 06:05:28;;;;;;;35.53;14.45;;;;;;;-4.32;100.00;100219.38;5050394;28;20419;-39
2022/12/14 06:07:53;;;;;;;33.90;12.63;;;;;;;-4.40;100.00;100216.41;5051579;28;21872;-40
2022/12/14 06:10:19;;;;;;;29.17;12.90;;;;;;;-4.43;100.00;100214.84;5051154;28;20029;-40
2022/12/14 06:12:44;;;;;;;27.15;12.25;;;;;;;-4.34;100.00;100213.41;5049548;28;20115;-40
2022/12/14 06:15:09;;;;;;;27.13;11.60;;;;;;;-4.40;100.00;100208.53;5066327;28;20127;-40
2022/12/14 06:17:35;;;;;;;25.55;11.70;;;;;;;-4.39;100.00;100206.78;5051323;28;20476;-39
2022/12/14 06:20:00;;;;;;;30.77;12.73;;;;;;;-4.34;100.00;100216.03;5051980;28;20392;-41
2022/12/14 06:22:25;;;;;;;26.45;13.07;;;;;;;-4.41;100.00;100217.38;5058994;28;20068;-39
2022/12/14 06:24:51;;;;;;;25.00;12.32;;;;;;;-4.45;100.00;100213.25;5050258;28;20095;-40
2022/12/14 06:27:16;;;;;;;29.92;12.48;;;;;;;-4.47;100.00;100213.38;5051140;28;20531;-39
2022/12/14 06:29:41;;;;;;;28.92;12.73;;;;;;;-4.41;100.00;100217.38;5065642;28;20495;-38
2022/12/14 06:32:07;;;;;;;26.95;12.02;;;;;;;-4.37;100.00;100208.38;5060161;28;20033;-38
2022/12/14 06:34:32;;;;;;;29.55;11.95;;;;;;;-4.42;100.00;100211.28;5036455;28;20107;-40
2022/12/14 06:36:57;;;;;;;33.42;12.38;;;;;;;-4.41;100.00;100209.50;5064518;28;20079;-39
2022/12/14 06:39:23;;;;;;;27.33;12.23;;;;;;;-4.50;100.00;100213.59;5061502;28;20021;-40
2022/12/14 06:41:50;;;;;;;31.52;13.63;;;;;;;-4.53;100.00;100218.19;5068578;28;20033;-39
2022/12/14 06:44:15;;;;;;;29.08;12.25;;;;;;;-4.50;100.00;100217.97;5049432;28;20036;-38
2022/12/14 06:46:41;;;;;;;27.63;11.13;;;;;;;-4.48;100.00;100211.66;5049478;28;20033;-40
2022/12/14 06:49:11;;;;;;;33.78;12.60;;;;;;;-4.49;100.00;100209.16;5062852;28;20185;-40
2022/12/14 06:51:38;;;;;;;30.20;13.25;;;;;;;-4.53;100.00;100208.53;5058780;28;20086;-38
2022/12/14 06:54:03;;;;;;;34.30;13.07;;;;;;;-4.57;100.00;100216.72;5055742;28;20025;-39
2022/12/14 06:56:29;;;;;;;37.17;13.70;;;;;;;-4.59;100.00;100208.09;5071986;28;20548;-39
2022/12/14 06:58:55;;;;;;;31.33;12.95;;;;;;;-4.58;100.00;100212.38;5043893;28;20028;-39
2022/12/14 07:01:22;;;;;;;31.33;13.38;;;;;;;-4.57;100.00;100216.72;5066058;28;20029;-39
2022/12/14 07:03:58;;;;;;;29.50;12.93;;;;;;;-4.54;100.00;100211.25;5062681;28;20043;-40
2022/12/14 07:06:26;;;;;;;28.17;11.98;;;;;;;-4.51;100.00;100213.66;5059295;28;20372;-40
2022/12/14 07:08:53;;;;;;;28.98;12.63;;;;;;;-4.58;100.00;100221.13;5066767;28;20111;-37
2022/12/14 07:11:18;;;;;;;24.70;11.47;;;;;;;-4.55;100.00;100222.72;5061532;28;20505;-40
2022/12/14 07:13:44;;;;;;;30.17;12.15;;;;;;;-4.55;100.00;100220.91;5080870;28;20112;-40
2022/12/14 07:16:16;;;;;;;26.33;11.00;;;;;;;-4.59;100.00;100211.53;5053480;28;20427;-38
2022/12/14 07:18:41;;;;;;;29.20;13.32;;;;;;;-4.58;100.00;100220.25;5052826;28;20020;-40
2022/12/14 07:21:09;;;;;;;23.15;10.40;;;;;;;-4.52;100.00;100219.88;5052584;28;20075;-38
2022/12/14 07:23:36;;;;;;;24.45;11.65;;;;;;;-4.53;100.00;100215.56;5058173;28;20063;-37
2022/12/14 07:26:09;;;;;;;27.08;10.88;;;;;;;-4.53;100.00;100210.28;5068093;28;20040;-38
2022/12/14 07:28:35;;;;;;;23.85;10.43;;;;;;;-4.57;100.00;100212.28;5061531;28;20055;-38
2022/12/14 07:31:02;;;;;;;27.30;12.20;;;;;;;-4.67;100.00;100214.66;5063762;28;20028;-40
2022/12/14 07:33:27;;;;;;;27.75;11.45;;;;;;;-4.67;100.00;100226.97;5050912;28;20029;-41
2022/12/14 07:36:08;;;;;;;21.45;10.70;;;;;;;-4.66;100.00;100224.25;5052215;28;20063;-41
2022/12/14 07:38:35;;;;;;;26.98;11.38;;;;;;;-4.57;100.00;100229.84;5031670;28;20506;-40
2022/12/14 07:41:21;;;;;;;26.80;11.50;;;;;;;-4.56;100.00;100239.38;5050962;28;20028;-38
2022/12/14 07:43:46;;;;;;;25.13;11.07;;;;;;;-4.52;100.00;100238.25;5065172;28;20506;-40
2022/12/14 07:46:15;;;;;;;29.60;12.82;;;;;;;-4.51;100.00;100250.44;5059588;28;20107;-40
2022/12/14 07:48:45;;;;;;;27.73;12.20;;;;;;;-4.54;100.00;100248.00;5057155;28;20465;-39
2022/12/14 07:51:12;;;;;;;23.27;11.40;;;;;;;-4.56;100.00;100245.47;5059696;28;20036;-40
2022/12/14 07:53:38;;;;;;;32.65;11.77;;;;;;;-4.58;100.00;100246.53;5060779;28;20035;-41
2022/12/14 07:56:09;;;;;;;29.50;12.25;;;;;;;-4.53;100.00;100244.44;5061443;28;20025;-41
2022/12/14 07:58:35;;;;;;;29.40;11.60;;;;;;;-4.56;100.00;100245.47;5059746;28;20033;-41
2022/12/14 08:01:12;;;;;;;26.05;12.00;;;;;;;-4.58;100.00;100263.16;5057817;28;20036;-40
2022/12/14 08:03:39;;;;;;;28.70;11.02;;;;;;;-4.62;100.00;100245.88;5058431;28;20032;-38
2022/12/14 08:06:07;;;;;;;26.85;11.35;;;;;;;-4.61;100.00;100262.47;5062118;28;20345;-38
2022/12/14 08:08:32;;;;;;;29.38;11.48;;;;;;;-4.60;100.00;100258.94;5061699;28;20080;-39
2022/12/14 08:10:58;;;;;;;21.08;10.30;;;;;;;-4.61;100.00;100258.06;5059753;28;20024;-39
2022/12/14 08:13:23;;;;;;;28.60;11.77;;;;;;;-4.63;100.00;100257.34;5062506;28;20032;-41
2022/12/14 08:15:49;;;;;;;29.45;12.45;;;;;;;-4.55;100.00;100246.34;5062431;28;20037;-40
2022/12/14 08:18:14;;;;;;;30.60;12.15;;;;;;;-4.56;100.00;100247.25;5061593;28;20475;-39
2022/12/14 08:20:40;;;;;;;26.77;11.93;;;;;;;-4.54;100.00;100253.28;5058895;28;20458;-37
2022/12/14 08:23:05;;;;;;;31.30;11.23;;;;;;;-4.59;100.00;100250.94;5056587;28;20546;-41
2022/12/14 08:25:30;;;;;;;30.77;12.23;;;;;;;-4.22;100.00;100253.78;5062890;28;20112;-40
2022/12/14 08:27:56;;;;;;;33.10;12.82;;;;;;;-3.35;100.00;100260.97;5063070;28;20434;-39
2022/12/14 08:30:21;;;;;;;26.67;12.30;;;;;;;-2.17;100.00;100259.50;5061340;28;20428;-40
2022/12/14 08:32:46;;;;;;;28.17;12.55;;;;;;;-0.82;100.00;100264.88;5061118;28;20086;-40
2022/12/14 08:35:12;;;;;;;29.92;13.00;;;;;;;0.24;100.00;100260.63;5059437;28;20075;-39
2022/12/14 08:37:37;;;;;;;28.42;11.55;;;;;;;0.73;100.00;100253.78;5059696;28;20032;-40
2022/12/14 08:40:03;;;;;;;25.27;11.80;;;;;;;1.74;100.00;100256.25;5060819;28;20056;-40
2022/12/14 08:42:28;;;;;;;20.98;10.70;;;;;;;2.81;92.56;100258.69;5060112;28;20035;-40
2022/12/14 08:44:54;;;;;;;25.88;11.05;;;;;;;3.14;81.72;100260.94;5064802;28;20381;-40
2022/12/14 08:47:19;;;;;;;21.48;10.25;;;;;;;3.42;75.46;100253.75;5064624;28;20025;-40
2022/12/14 08:49:44;;;;;;;23.40;10.75;;;;;;;3.63;70.29;100262.28;5065470;28;20024;-40
2022/12/14 08:52:10;;;;;;;24.58;11.63;;;;;;;3.53;66.95;100258.88;5044616;28;20950;-41
2022/12/14 08:54:35;;;;;;;19.27;10.43;;;;;;;2.98;65.62;100256.25;5063128;28;20032;-37
2022/12/14 08:57:02;;;;;;;20.25;9.90;;;;;;;2.40;66.87;100258.13;5065276;28;20025;-40
2022/12/14 08:59:28;;;;;;;17.23;9.57;;;;;;;2.31;68.51;100268.75;5063286;28;20044;-41
2022/12/14 09:01:53;;;;;;;21.55;10.80;;;;;;;2.31;67.54;100266.94;5061710;28;20055;-40
2022/12/14 09:04:19;;;;;;;21.13;10.15;;;;;;;2.06;66.56;100264.91;5061360;28;20043;-40
2022/12/14 09:06:44;;;;;;;22.45;10.55;;;;;;;1.56;66.95;100265.03;5061751;28;20033;-41
2022/12/14 09:09:10;;;;;;;21.30;11.15;;;;;;;1.44;68.72;100265.13;5061734;28;20032;-41
2022/12/14 09:11:35;;;;;;;24.00;10.85;;;;;;;1.21;69.05;100269.84;5059790;28;20032;-40
2022/12/14 09:14:00;;;;;;;20.60;10.20;;;;;;;1.22;70.46;100260.09;5042890;28;20389;-41
2022/12/14 09:16:26;;;;;;;21.27;10.25;;;;;;;1.38;71.85;100260.38;5060196;28;20032;-40
2022/12/14 09:18:52;;;;;;;23.65;10.32;;;;;;;1.82;71.86;100266.16;5060851;28;20035;-41
2022/12/14 09:21:17;;;;;;;23.80;10.23;;;;;;;2.71;69.17;100268.50;5062094;28;20020;-41
2022/12/14 09:23:43;;;;;;;20.08;9.77;;;;;;;3.40;66.43;100269.03;5062249;28;20040;-40
2022/12/14 09:26:19;;;;;;;20.95;10.43;;;;;;;4.06;63.22;100268.66;5062906;28;20381;-40
2022/12/14 09:28:48;;;;;;;18.95;10.05;;;;;;;4.72;62.05;100269.13;5061907;28;20040;-40
2022/12/14 09:31:15;;;;;;;17.60;9.82;;;;;;;5.56;57.45;100262.13;5060925;28;20048;-41
2022/12/14 09:33:40;;;;;;;19.52;9.55;;;;;;;5.60;55.55;100261.59;5059751;28;20032;-40
2022/12/14 09:36:09;;;;;;;22.25;10.60;;;;;;;5.97;55.08;100270.19;5061502;28;20032;-39
2022/12/14 09:38:36;;;;;;;16.67;9.73;;;;;;;6.22;53.21;100263.88;5058914;28;20070;-40
2022/12/14 09:41:07;;;;;;;17.58;9.65;;;;;;;6.55;52.99;100274.50;5060743;28;20180;-40
2022/12/14 09:43:39;;;;;;;19.52;9.95;;;;;;;6.91;51.35;100277.59;5058991;28;20431;-41
2022/12/14 09:46:31;;;;;;;19.33;9.35;;;;;;;6.95;49.84;100273.59;5059974;28;20028;-41
2022/12/14 09:48:57;;;;;;;21.50;10.02;;;;;;;6.97;49.39;100278.75;5061676;28;20060;-39
2022/12/14 09:51:30;;;;;;;22.45;10.43;;;;;;;6.29;50.51;100286.25;5061832;28;20577;-41
2022/12/14 09:54:02;;;;;;;18.67;10.27;;;;;;;6.72;49.29;100284.19;5058609;28;20463;-41
2022/12/14 09:56:28;;;;;;;20.80;9.48;;;;;;;7.05;47.51;100286.75;5060779;28;20067;-42
2022/12/14 09:58:55;;;;;;;19.48;9.85;;;;;;;7.00;46.48;100284.63;5062854;28;20456;-42
2022/12/14 10:01:21;;;;;;;19.50;9.85;;;;;;;6.49;46.32;100283.22;5061376;28;20122;-42
2022/12/14 10:04:14;;;;;;;19.23;9.82;;;;;;;5.31;48.28;100285.22;5059955;28;20055;-42
2022/12/14 10:07:04;;;;;;;18.33;9.25;;;;;;;4.21;50.62;100281.41;5061874;28;20036;-39
2022/12/14 10:09:49;;;;;;;18.60;9.73;;;;;;;3.10;53.92;100286.94;5060208;28;20036;-40
2022/12/14 10:12:48;;;;;;;19.98;10.05;;;;;;;2.51;56.34;100280.19;5057835;28;20028;-39
2022/12/14 10:15:25;;;;;;;20.65;9.70;;;;;;;2.48;58.66;100278.66;5062376;28;21376;-41
2022/12/14 10:17:59;;;;;;;18.13;9.48;;;;;;;2.40;58.72;100278.53;5062442;28;20068;-38
2022/12/14 10:21:02;;;;;;;20.70;10.48;;;;;;;2.46;59.91;100282.44;5061371;28;20402;-40
2022/12/14 10:23:28;;;;;;;19.20;9.82;;;;;;;2.95;59.20;100277.78;5059281;28;20044;-41
2022/12/14 10:25:57;;;;;;;22.63;11.20;;;;;;;3.63;57.39;100277.41;5063345;28;20033;-41
2022/12/14 10:28:35;;;;;;;17.27;9.35;;;;;;;3.91;55.08;100268.38;5064772;28;20423;-43
2022/12/14 10:31:01;;;;;;;20.92;9.95;;;;;;;4.06;55.24;100257.19;5061141;28;20029;-43
2022/12/14 10:33:30;;;;;;;23.02;9.90;;;;;;;4.05;54.44;100259.00;5065120;28;20106;-42
2022/12/14 10:36:16;;;;;;;22.52;10.93;;;;;;;3.80;55.45;100254.47;5047024;28;20502;-41
2022/12/14 10:38:46;;;;;;;23.15;10.23;;;;;;;4.32;55.60;100254.56;5065955;28;20032;-41
2022/12/14 10:41:14;;;;;;;23.63;10.73;;;;;;;4.33;55.17;100254.38;5059273;28;20028;-41
2022/12/14 10:43:57;;;;;;;22.63;10.20;;;;;;;4.67;52.49;100263.44;5060016;28;20040;-41
2022/12/14 10:46:37;;;;;;;20.20;9.43;;;;;;;4.42;54.10;100263.25;5065574;28;20040;-42
2022/12/14 10:49:15;;;;;;;22.75;9.85;;;;;;;4.78;52.80;100260.47;5062936;28;20120;-42
2022/12/14 10:51:47;;;;;;;23.35;10.27;;;;;;;5.48;50.88;100261.09;5064939;28;20115;-41
2022/12/14 10:54:38;;;;;;;24.48;11.43;;;;;;;5.05;50.59;100260.31;5061198;28;20037;-41
2022/12/14 10:57:04;;;;;;;21.90;10.68;;;;;;;4.75;52.21;100256.31;5066798;28;20764;-40
2022/12/14 10:59:35;;;;;;;20.58;10.50;;;;;;;4.31;52.06;100247.53;5065219;28;20028;-41
2022/12/14 11:02:07;;;;;;;25.25;10.60;;;;;;;4.18;54.70;100247.94;5063367;28;20028;-41
2022/12/14 11:04:45;;;;;;;24.77;11.80;;;;;;;4.86;54.33;100249.84;5064610;28;20031;-41
2022/12/14 11:07:13;;;;;;;23.27;10.80;;;;;;;5.07;53.10;100247.63;5067892;28;20041;-40
2022/12/14 11:09:39;;;;;;;26.40;9.52;;;;;;;6.25;49.58;100258.19;5063917;28;20135;-40
2022/12/14 11:12:17;;;;;;;22.98;9.43;;;;;;;7.03;46.88;100256.69;5064987;28;20115;-40
2022/12/14 11:15:00;;;;;;;23.63;11.10;;;;;;;7.28;45.11;100259.25;5067372;28;20047;-41
2022/12/14 11:17:33;;;;;;;20.95;9.73;;;;;;;7.41;45.15;100260.34;5062289;28;20056;-40
2022/12/14 11:20:14;;;;;;;26.15;10.10;;;;;;;7.37;44.26;100263.53;5063937;28;20068;-41
2022/12/14 11:23:07;;;;;;;24.40;10.05;;;;;;;6.78;45.29;100256.75;5068106;28;20037;-41
2022/12/14 11:25:35;;;;;;;33.42;11.98;;;;;;;6.50;47.17;100260.81;5063737;28;20045;-42
2022/12/14 11:28:17;;;;;;;;;;;;;;;6.47;47.62;100261.16;5066478;28;20052;-41
2022/12/14 11:31:04;;;;;;;28.60;11.07;;;;;;;6.53;46.85;100241.75;5067850;28;19917;-41
2022/12/14 11:33:33;;;;;;;30.23;11.68;;;;;;;7.07;47.81;100254.47;5067839;28;20032;-41